Time;durP1;ratioP1;P1;durP2;ratioP2;P2;SDS_P1;SDS_P2;PMS_P1;PMS_P2;Temp;Humidity;BMP_temperature;BMP_pressure;BME280_temperature;BME280_humidity;BME280_pressure;Samples;Min_cycle;Max_cycle;Signal;HPM_P1;HPM_P2
2022/12/08 00:00:03;;;;;;;20.75;8.65;;;;;;;0.07;100.00;100544.88;2072360;28;31706;-73
2022/12/08 00:01:20;;;;;;;17.60;8.20;;;;;;;0.07;100.00;100538.72;2072373;28;20065;-72
2022/12/08 00:02:22;;;;;;;11.18;7.80;;;;;;;0.04;100.00;100536.94;2071746;28;37231;-71
2022/12/08 00:03:24;;;;;;;13.38;7.45;;;;;;;0.05;100.00;100535.19;2072183;28;26710;-72
2022/12/08 00:04:25;;;;;;;17.38;8.50;;;;;;;0.05;100.00;100532.56;2071856;28;36402;-72
2022/12/08 00:09:36;;;;;;;11.85;6.80;;;;;;;0.14;100.00;100536.22;2072726;28;25281;-71
2022/12/08 00:10:44;;;;;;;12.50;7.07;;;;;;;0.18;100.00;100532.75;2063347;28;34344;-72
2022/12/08 00:12:01;;;;;;;14.60;7.88;;;;;;;0.15;100.00;100537.09;2065626;28;20050;-72
2022/12/08 00:13:03;;;;;;;17.50;8.45;;;;;;;0.17;100.00;100535.34;2072174;28;32121;-72
2022/12/08 00:14:05;;;;;;;16.90;8.27;;;;;;;0.19;100.00;100534.50;2071929;28;29217;-72
2022/12/08 00:15:07;;;;;;;16.42;7.63;;;;;;;0.16;100.00;100531.84;2072436;28;20105;-72
2022/12/08 00:16:08;;;;;;;17.27;7.28;;;;;;;0.15;100.00;100535.31;2071877;28;33772;-72
2022/12/08 00:17:14;;;;;;;12.20;7.03;;;;;;;0.16;100.00;100533.56;2072571;28;20966;-72
2022/12/08 00:18:15;;;;;;;15.00;7.80;;;;;;;0.15;100.00;100529.19;2071544;28;36171;-72
2022/12/08 00:19:17;;;;;;;13.98;7.53;;;;;;;0.15;100.00;100535.31;2072440;28;28072;-72
2022/12/08 00:20:19;;;;;;;12.73;7.60;;;;;;;0.17;100.00;100532.72;2071804;28;27232;-72
2022/12/08 00:21:20;;;;;;;12.43;7.03;;;;;;;0.16;100.00;100530.94;2071873;28;31706;-72
2022/12/08 00:22:22;;;;;;;15.45;7.35;;;;;;;0.15;100.00;100526.56;2071585;28;31203;-72
2022/12/08 00:23:24;;;;;;;12.68;7.10;;;;;;;0.11;100.00;100525.63;2071880;28;34076;-72
2022/12/08 00:24:31;;;;;;;13.02;6.95;;;;;;;0.10;100.00;100530.88;2071433;28;38379;-72
2022/12/08 00:25:36;;;;;;;12.50;7.00;;;;;;;0.14;100.00;100525.69;2064010;28;20039;-72
2022/12/08 00:26:37;;;;;;;11.90;7.22;;;;;;;0.15;100.00;100529.19;2064452;28;20043;-72
2022/12/08 00:27:39;;;;;;;13.80;6.60;;;;;;;0.17;100.00;100528.31;2063154;28;23851;-72
2022/12/08 00:28:43;;;;;;;12.77;6.57;;;;;;;0.19;100.00;100533.63;2064055;28;20128;-71
2022/12/08 00:29:45;;;;;;;14.18;6.00;;;;;;;0.19;100.00;100533.63;2071670;28;38573;-71
2022/12/08 00:30:47;;;;;;;14.63;6.40;;;;;;;0.20;100.00;100522.25;2071402;28;38874;-72
2022/12/08 00:31:49;;;;;;;11.75;6.05;;;;;;;0.24;100.00;100517.91;2072982;28;20046;-72
2022/12/08 00:32:51;;;;;;;13.10;6.72;;;;;;;0.26;100.00;100514.41;2062478;28;29809;-72
2022/12/08 00:33:52;;;;;;;10.98;6.15;;;;;;;0.26;100.00;100509.13;2063641;28;31703;-72
2022/12/08 00:34:54;;;;;;;12.55;5.93;;;;;;;0.29;100.00;100521.47;2071574;28;30624;-72
2022/12/08 00:35:56;;;;;;;12.20;5.85;;;;;;;0.29;100.00;100517.06;2071802;28;36968;-72
2022/12/08 00:36:57;;;;;;;13.40;5.57;;;;;;;0.32;100.00;100511.84;2071605;28;38690;-73
2022/12/08 00:37:59;;;;;;;10.55;5.03;;;;;;;0.37;100.00;100507.50;2071702;28;37027;-72
2022/12/08 00:39:01;;;;;;;14.23;5.07;;;;;;;0.40;100.00;100505.78;2071386;28;35886;-72
2022/12/08 00:40:04;;;;;;;15.18;5.47;;;;;;;0.44;100.00;100508.47;2072164;28;20864;-72
2022/12/08 00:41:14;;;;;;;10.95;5.07;;;;;;;0.46;100.00;100505.84;2071448;28;35922;-72
2022/12/08 00:42:19;;;;;;;10.07;4.03;;;;;;;0.48;100.00;100502.34;2062709;28;37236;-72
2022/12/08 00:43:20;;;;;;;10.77;4.25;;;;;;;0.49;100.00;100498.88;2063957;28;37112;-74
2022/12/08 00:44:22;;;;;;;12.90;4.72;;;;;;;0.53;100.00;100500.66;2071575;28;40684;-75
2022/12/08 00:45:24;;;;;;;9.68;4.88;;;;;;;0.55;100.00;100500.69;2072407;28;20034;-73
2022/12/08 00:46:26;;;;;;;12.77;4.78;;;;;;;0.58;100.00;100506.00;2071402;28;36354;-72
2022/12/08 00:47:28;;;;;;;11.82;4.72;;;;;;;0.58;100.00;100492.81;2072119;28;36704;-72
2022/12/08 00:48:29;;;;;;;11.55;4.53;;;;;;;0.59;100.00;100497.19;2072594;28;20037;-71
2022/12/08 00:49:31;;;;;;;12.30;4.10;;;;;;;0.63;100.00;100503.38;2071208;28;40283;-73
2022/12/08 00:50:33;;;;;;;10.98;4.32;;;;;;;0.67;100.00;100492.91;2071000;28;31012;-71
2022/12/08 00:51:34;;;;;;;11.00;4.40;;;;;;;0.67;100.00;100506.09;2071809;28;21387;-71
2022/12/08 00:52:38;;;;;;;10.27;4.07;;;;;;;0.67;100.00;100500.81;2071507;28;36677;-71
2022/12/08 00:53:40;;;;;;;9.63;3.78;;;;;;;0.67;100.00;100494.66;2072389;28;20038;-71
2022/12/08 00:54:42;;;;;;;10.45;4.05;;;;;;;0.67;100.00;100498.19;2071414;28;32791;-71
2022/12/08 00:55:43;;;;;;;9.88;3.88;;;;;;;0.69;100.00;100498.19;2071680;28;31220;-71
2022/12/08 00:56:45;;;;;;;9.77;3.90;;;;;;;0.66;100.00;100499.03;2072326;28;20038;-71
2022/12/08 00:57:49;;;;;;;8.45;3.88;;;;;;;0.64;100.00;100495.50;2070618;28;27780;-72
2022/12/08 00:58:53;;;;;;;10.27;3.55;;;;;;;0.66;100.00;100492.88;2071185;28;32947;-71
2022/12/08 00:59:56;;;;;;;9.32;3.70;;;;;;;0.67;100.00;100486.78;2071452;28;35359;-73
2022/12/08 01:00:57;;;;;;;9.70;3.60;;;;;;;0.65;100.00;100497.28;2071459;28;37493;-72
2022/12/08 01:01:59;;;;;;;9.68;3.50;;;;;;;0.64;100.00;100492.88;2072111;28;20046;-73
2022/12/08 01:03:01;;;;;;;10.98;3.75;;;;;;;0.63;100.00;100501.66;2071635;28;34335;-71
2022/12/08 01:04:11;;;;;;;9.98;3.13;;;;;;;0.63;100.00;100491.13;2071579;28;30510;-73
2022/12/08 01:05:13;;;;;;;6.93;3.17;;;;;;;0.62;100.00;100494.59;2072088;28;29415;-71
2022/12/08 01:06:15;;;;;;;10.70;3.45;;;;;;;0.61;100.00;100484.97;2071131;28;39188;-71
2022/12/08 01:07:16;;;;;;;7.25;3.35;;;;;;;0.61;100.00;100489.31;2072134;28;27124;-73
2022/12/08 01:08:18;;;;;;;7.90;3.20;;;;;;;0.60;100.00;100485.81;2071850;28;28175;-72
2022/12/08 01:09:20;;;;;;;7.57;3.22;;;;;;;0.57;100.00;100485.78;2071921;28;30407;-71
2022/12/08 01:10:21;;;;;;;8.65;3.25;;;;;;;0.57;100.00;100488.41;2071762;28;20042;-72
2022/12/08 01:11:25;;;;;;;7.72;3.45;;;;;;;0.60;100.00;100488.44;2071873;28;32435;-71
2022/12/08 01:12:30;;;;;;;9.65;3.53;;;;;;;0.62;100.00;100484.06;2070798;28;35878;-71
2022/12/08 01:13:32;;;;;;;10.10;4.10;;;;;;;0.63;100.00;100492.84;2071256;28;30909;-73
2022/12/08 01:14:36;;;;;;;8.73;3.00;;;;;;;0.63;100.00;100488.47;2063180;28;20447;-73
2022/12/08 01:15:38;;;;;;;7.30;3.67;;;;;;;0.66;100.00;100477.97;2064050;28;39006;-71
2022/12/08 01:16:40;;;;;;;6.82;3.92;;;;;;;0.67;100.00;100479.75;2071324;28;31147;-71
2022/12/08 01:17:42;;;;;;;8.77;3.83;;;;;;;0.68;100.00;100488.50;2071949;28;29944;-71
2022/12/08 01:18:44;;;;;;;13.32;4.10;;;;;;;0.71;100.00;100481.53;2072028;28;20043;-72
2022/12/08 01:19:46;;;;;;;8.85;3.65;;;;;;;0.74;100.00;100480.69;2071182;28;38190;-73
2022/12/08 01:20:48;;;;;;;13.35;4.07;;;;;;;0.75;100.00;100470.16;2071552;28;30159;-73
2022/12/08 01:21:49;;;;;;;11.65;4.18;;;;;;;0.76;100.00;100477.19;2071668;28;32579;-74
2022/12/08 01:22:51;;;;;;;9.02;3.80;;;;;;;0.79;100.00;100478.09;2071286;28;34519;-71
2022/12/08 01:23:54;;;;;;;8.25;3.65;;;;;;;0.79;100.00;100478.09;2071721;28;28514;-71
2022/12/08 01:24:56;;;;;;;12.85;4.35;;;;;;;0.82;100.00;100478.13;2070877;28;40172;-72
2022/12/08 01:26:03;;;;;;;9.90;4.50;;;;;;;0.83;100.00;100477.25;2071538;28;34699;-71
2022/12/08 01:27:05;;;;;;;9.30;4.20;;;;;;;0.84;100.00;100486.91;2071366;28;36215;-71
2022/12/08 01:28:07;;;;;;;8.75;4.05;;;;;;;0.85;100.00;100486.06;2071057;28;32158;-71
2022/12/08 01:29:09;;;;;;;8.55;4.28;;;;;;;0.88;100.00;100488.69;2071420;28;31303;-72
2022/12/08 01:30:12;;;;;;;9.30;3.60;;;;;;;0.87;100.00;100490.47;2063270;28;20553;-73
2022/12/08 01:31:17;;;;;;;12.65;4.13;;;;;;;0.90;100.00;100484.34;2063162;28;33043;-72
2022/12/08 01:32:19;;;;;;;12.07;4.13;;;;;;;0.90;100.00;100481.72;2071773;28;37438;-72
2022/12/08 01:33:21;;;;;;;12.77;3.53;;;;;;;0.91;100.00;100491.38;2071460;28;25315;-73
2022/12/08 01:34:23;;;;;;;12.43;3.85;;;;;;;0.91;100.00;100483.47;2063069;28;28655;-73
2022/12/08 01:35:25;;;;;;;9.25;4.20;;;;;;;0.93;100.00;100490.53;2063477;28;20054;-72
2022/12/08 01:36:30;;;;;;;9.00;4.30;;;;;;;0.96;100.00;100487.03;2071462;28;36665;-72
2022/12/08 01:37:32;;;;;;;12.68;4.22;;;;;;;0.95;100.00;100487.88;2062380;28;35915;-74
2022/12/08 01:38:34;;;;;;;8.20;4.18;;;;;;;0.96;100.00;100489.66;2064590;28;20047;-73
2022/12/08 01:39:40;;;;;;;7.40;3.65;;;;;;;0.96;100.00;100492.31;2071343;28;31817;-72
2022/12/08 01:40:42;;;;;;;8.05;3.80;;;;;;;0.96;100.00;100489.66;2071249;28;35834;-72
2022/12/08 01:41:46;;;;;;;11.63;3.58;;;;;;;0.98;100.00;100485.28;2062541;28;25635;-73
2022/12/08 01:42:48;;;;;;;8.15;3.72;;;;;;;0.99;100.00;100483.53;2063597;28;20189;-73
2022/12/08 01:43:55;;;;;;;10.93;3.65;;;;;;;0.99;100.00;100488.78;2070677;28;39643;-73
2022/12/08 01:45:06;;;;;;;10.23;3.92;;;;;;;1.00;100.00;100486.19;2071574;28;21908;-72
2022/12/08 01:46:10;;;;;;;9.70;3.75;;;;;;;1.01;100.00;100484.44;2062681;28;34685;-72
2022/12/08 01:47:12;;;;;;;6.00;3.63;;;;;;;1.02;100.00;100480.94;2064205;28;27911;-71
2022/12/08 01:48:25;;;;;;;6.15;2.83;;;;;;;1.02;100.00;100486.19;2071389;28;30473;-72
2022/12/08 01:49:32;;;;;;;4.60;3.30;;;;;;;1.01;100.00;100490.59;2062625;28;36932;-72
2022/12/08 01:50:39;;;;;;;8.15;2.88;;;;;;;1.03;100.00;100480.06;2065691;28;20046;-72
2022/12/08 01:52:06;;;;;;;8.23;3.15;;;;;;;1.02;100.00;100487.06;2062260;28;43161;-74
2022/12/08 01:53:20;;;;;;;6.82;3.67;;;;;;;1.04;100.00;100485.34;2067713;28;31997;-72
2022/12/08 01:54:27;;;;;;;8.63;3.47;;;;;;;1.04;100.00;100481.81;2062120;28;33829;-72
2022/12/08 01:55:58;;;;;;;9.68;3.50;;;;;;;1.03;100.00;100478.31;2065358;28;32937;-72
2022/12/08 01:57:52;;;;;;;;;;;;;;;1.02;100.00;100479.16;2054946;28;35773;-72
2022/12/08 01:58:54;;;;;;;14.73;2.67;;;;;;;1.04;100.00;100477.44;2039336;28;33207;-72
2022/12/08 02:00:12;;;;;;;6.60;2.92;;;;;;;1.05;100.00;100471.28;2071265;28;31961;-73
2022/12/08 02:01:17;;;;;;;6.68;3.08;;;;;;;1.07;100.00;100477.44;2072194;28;20038;-72
2022/12/08 02:02:19;;;;;;;8.88;3.30;;;;;;;1.06;100.00;100473.06;2063607;28;34765;-72
2022/12/08 02:03:30;;;;;;;8.95;3.00;;;;;;;1.06;100.00;100478.34;2065880;28;20038;-72
2022/12/08 02:04:32;;;;;;;6.35;3.35;;;;;;;1.07;100.00;100472.19;2063812;28;35913;-73
2022/12/08 02:05:38;;;;;;;10.05;3.55;;;;;;;1.07;100.00;100469.53;2065303;28;35826;-72
2022/12/08 02:06:45;;;;;;;5.13;2.88;;;;;;;1.06;100.00;100473.06;2064428;28;29187;-73
2022/12/08 02:07:48;;;;;;;11.27;3.58;;;;;;;1.06;100.00;100473.06;2066028;28;20043;-72
2022/12/08 02:08:54;;;;;;;7.38;3.15;;;;;;;1.05;100.00;100471.28;2063909;28;30113;-73
2022/12/08 02:09:56;;;;;;;6.25;3.17;;;;;;;1.04;100.00;100469.53;2065028;28;35579;-73
2022/12/08 02:10:58;;;;;;;6.28;3.15;;;;;;;1.05;100.00;100468.66;2064047;28;31791;-73
2022/12/08 02:12:00;;;;;;;10.82;3.10;;;;;;;1.06;100.00;100469.53;2064865;28;21666;-73
2022/12/08 02:13:04;;;;;;;9.13;3.33;;;;;;;1.04;100.00;100469.53;2072180;28;33950;-73
2022/12/08 02:14:12;;;;;;;12.05;3.20;;;;;;;1.07;100.00;100468.66;2064073;28;32301;-72
2022/12/08 02:15:14;;;;;;;9.45;3.08;;;;;;;1.06;100.00;100467.78;2065588;28;27062;-73
2022/12/08 02:16:58;;;;;;;7.32;3.05;;;;;;;1.07;100.00;100466.03;2071888;28;38762;-72
2022/12/08 02:18:13;;;;;;;9.68;3.15;;;;;;;1.07;100.00;100472.19;2064375;28;32221;-73
2022/12/08 02:19:30;;;;;;;5.70;2.92;;;;;;;1.07;100.00;100469.53;2069284;28;40431;-73
2022/12/08 02:20:51;;;;;;;9.65;3.03;;;;;;;1.07;100.00;100469.53;2073010;28;35603;-73
2022/12/08 02:22:19;;;;;;;6.00;2.78;;;;;;;1.07;100.00;100463.41;2064069;28;37555;-73
2022/12/08 02:23:45;;;;;;;9.20;2.80;;;;;;;1.06;100.00;100457.25;2068458;28;31082;-73
2022/12/08 02:25:02;;;;;;;6.15;3.00;;;;;;;1.06;100.00;100451.97;2063732;28;33896;-73
2022/12/08 02:26:42;;;;;;;8.48;2.78;;;;;;;1.04;100.00;100453.72;2068766;28;35227;-73
2022/12/08 02:28:15;;;;;;;;;;;;;;;1.02;100.00;100454.56;2072031;28;31615;-73
2022/12/08 02:29:42;;;;;;;4.20;2.15;;;;;;;0.97;100.00;100451.91;2072219;28;35540;-74
2022/12/08 02:31:27;;;;;;;7.72;2.55;;;;;;;0.98;100.00;100450.16;2072628;28;39957;-73
2022/12/08 02:33:08;;;;;;;4.47;2.17;;;;;;;0.97;100.00;100446.63;2072914;28;27787;-73
2022/12/08 02:34:16;;;;;;;;;;;;;;;0.98;100.00;100445.75;2073195;28;32520;-74
2022/12/08 02:35:54;;;;;;;5.03;2.33;;;;;;;0.98;100.00;100448.38;2072738;28;33417;-74
2022/12/08 02:37:15;;;;;;;4.90;2.08;;;;;;;0.97;100.00;100445.72;2072862;28;37998;-74
2022/12/08 02:38:35;;;;;;;8.23;2.33;;;;;;;1.00;100.00;100441.38;2063575;28;31805;-75
2022/12/08 02:39:57;;;;;;;9.25;2.80;;;;;;;1.01;100.00;100443.16;2067924;28;38475;-74
2022/12/08 02:41:22;;;;;;;8.40;2.30;;;;;;;1.03;100.00;100445.81;2064120;28;29646;-73
2022/12/08 02:42:38;;;;;;;6.13;2.20;;;;;;;1.05;100.00;100444.06;2068939;28;39525;-73
2022/12/08 02:43:51;;;;;;;6.70;2.15;;;;;;;1.05;100.00;100439.66;2063520;28;39268;-73
2022/12/08 02:45:16;;;;;;;4.75;2.20;;;;;;;1.08;100.00;100438.81;2057230;28;42214;-73
2022/12/08 02:46:32;;;;;;;6.82;2.05;;;;;;;1.11;100.00;100444.09;2068746;28;20038;-73
2022/12/08 02:47:34;;;;;;;6.50;2.30;;;;;;;1.11;100.00;100439.72;2064079;28;33667;-73
2022/12/08 02:48:38;;;;;;;6.40;2.40;;;;;;;1.13;100.00;100443.25;2065402;28;33432;-73
2022/12/08 02:49:40;;;;;;;8.68;2.28;;;;;;;1.13;100.00;100440.59;2064162;28;20443;-73
2022/12/08 02:50:42;;;;;;;8.05;2.45;;;;;;;1.14;100.00;100434.44;2063691;28;34419;-73
2022/12/08 02:51:44;;;;;;;9.35;2.25;;;;;;;1.18;100.00;100434.47;2072732;28;28558;-73
2022/12/08 02:52:47;;;;;;;6.55;2.15;;;;;;;1.18;100.00;100435.34;2072775;28;20045;-73
2022/12/08 02:53:49;;;;;;;5.30;2.17;;;;;;;1.20;100.00;100430.09;2064411;28;20042;-73
2022/12/08 02:55:01;;;;;;;4.88;2.30;;;;;;;1.20;100.00;100438.00;2063672;28;35919;-73
2022/12/08 02:56:45;;;;;;;8.15;2.38;;;;;;;1.21;100.00;100431.88;2072542;28;31134;-73
2022/12/08 02:58:12;;;;;;;6.57;2.53;;;;;;;1.22;100.00;100425.72;2073078;28;28152;-73
2022/12/08 02:59:48;;;;;;;5.65;2.10;;;;;;;1.24;100.00;100426.59;2073261;28;20026;-73
2022/12/08 03:01:30;;;;;;;6.68;2.05;;;;;;;1.24;100.00;100424.88;2072077;28;20043;-73
2022/12/08 03:02:44;;;;;;;4.55;1.85;;;;;;;1.25;100.00;100418.69;2071935;28;39565;-73
2022/12/08 03:04:09;;;;;;;8.30;2.05;;;;;;;1.27;100.00;100421.34;2072856;28;20049;-73
2022/12/08 03:06:08;;;;;;;7.22;2.20;;;;;;;1.28;100.00;100420.50;2071764;28;30773;-72
2022/12/08 03:07:27;;;;;;;5.97;1.80;;;;;;;1.26;100.00;100416.97;2072277;28;34104;-72
2022/12/08 03:09:08;;;;;;;5.85;1.75;;;;;;;1.24;100.00;100413.41;2072456;28;41390;-73
2022/12/08 03:10:20;;;;;;;4.25;2.00;;;;;;;1.23;100.00;100416.94;2031511;29;36281;-73
2022/12/08 03:12:08;;;;;;;5.47;1.63;;;;;;;1.21;100.00;100410.78;2060470;28;38506;-72
2022/12/08 03:13:18;;;;;;;5.13;1.73;;;;;;;1.19;100.00;100420.44;2070567;28;33058;-73
2022/12/08 03:14:21;;;;;;;4.57;1.80;;;;;;;1.19;100.00;100407.25;2063289;28;33316;-73
2022/12/08 03:15:23;;;;;;;3.90;2.10;;;;;;;1.19;100.00;100404.63;2064375;28;20473;-72
2022/12/08 03:16:28;;;;;;;7.88;2.13;;;;;;;1.18;100.00;100400.19;2072572;28;32210;-73
2022/12/08 03:17:31;;;;;;;5.55;1.83;;;;;;;1.17;100.00;100412.50;2063081;28;30684;-74
2022/12/08 03:18:40;;;;;;;4.55;1.70;;;;;;;1.17;100.00;100407.25;2064667;28;20080;-73
2022/12/08 03:19:47;;;;;;;3.80;1.52;;;;;;;1.17;100.00;100396.69;2063521;28;36063;-73
2022/12/08 03:20:49;;;;;;;3.85;1.88;;;;;;;1.18;100.00;100397.56;2065196;28;34558;-73
2022/12/08 03:22:01;;;;;;;3.25;2.05;;;;;;;1.18;100.00;100405.47;2071895;28;25759;-73
2022/12/08 03:23:10;;;;;;;6.05;2.08;;;;;;;1.18;100.00;100394.94;2072221;28;35173;-73
2022/12/08 03:24:14;;;;;;;3.50;1.85;;;;;;;1.17;100.00;100393.16;2072502;28;34045;-73
2022/12/08 03:25:26;;;;;;;4.30;1.90;;;;;;;1.18;100.00;100397.56;2072567;28;36801;-72
2022/12/08 03:26:51;;;;;;;3.28;1.80;;;;;;;1.17;100.00;100395.78;2063842;28;39029;-73
2022/12/08 03:27:53;;;;;;;7.93;1.92;;;;;;;1.14;100.00;100391.38;2067386;28;38899;-73
2022/12/08 03:28:55;;;;;;;6.70;2.22;;;;;;;1.16;100.00;100399.31;2063316;28;41186;-73
2022/12/08 03:29:59;;;;;;;6.43;2.03;;;;;;;1.17;100.00;100390.50;2063731;28;20043;-73
2022/12/08 03:31:06;;;;;;;3.15;2.20;;;;;;;1.17;100.00;100387.88;2063850;28;24683;-73
2022/12/08 03:32:39;;;;;;;5.38;2.03;;;;;;;1.14;100.00;100389.63;2065197;28;20043;-74
2022/12/08 03:33:44;;;;;;;3.97;2.20;;;;;;;1.14;100.00;100392.25;2072018;28;34251;-73
2022/12/08 03:34:48;;;;;;;4.47;1.85;;;;;;;1.13;100.00;100398.44;2072067;28;40374;-73
2022/12/08 03:35:51;;;;;;;6.32;2.08;;;;;;;1.14;100.00;100388.75;2063126;28;28899;-73
2022/12/08 03:36:54;;;;;;;4.60;1.75;;;;;;;1.13;100.00;100385.25;2064006;28;26497;-73
2022/12/08 03:38:13;;;;;;;4.43;2.03;;;;;;;1.16;100.00;100394.03;2071489;28;28388;-74
2022/12/08 03:39:14;;;;;;;3.92;2.15;;;;;;;1.14;100.00;100387.00;2072475;28;31262;-74
2022/12/08 03:40:19;;;;;;;9.93;2.15;;;;;;;1.14;100.00;100386.13;2071083;28;40123;-74
2022/12/08 03:41:23;;;;;;;5.07;1.55;;;;;;;1.14;100.00;100392.25;2072143;28;36492;-74
2022/12/08 03:42:25;;;;;;;4.10;1.85;;;;;;;1.14;100.00;100392.25;2063015;28;37773;-73
2022/12/08 03:43:27;;;;;;;6.22;1.98;;;;;;;1.13;100.00;100385.25;2063613;28;20046;-73
2022/12/08 03:44:29;;;;;;;4.88;1.85;;;;;;;1.14;100.00;100387.00;2057947;28;32929;-74
2022/12/08 03:45:34;;;;;;;6.13;1.90;;;;;;;1.14;100.00;100386.13;2056423;28;20054;-74
2022/12/08 03:46:36;;;;;;;4.40;2.08;;;;;;;1.14;100.00;100392.25;2063113;28;31930;-74
2022/12/08 03:47:37;;;;;;;3.97;1.75;;;;;;;1.14;100.00;100384.34;2063606;28;31717;-73
2022/12/08 03:48:39;;;;;;;6.38;2.10;;;;;;;1.15;100.00;100395.81;2064285;28;29603;-74
2022/12/08 03:49:41;;;;;;;7.38;2.10;;;;;;;1.17;100.00;100390.50;2063832;28;32662;-74
2022/12/08 03:50:43;;;;;;;7.30;2.10;;;;;;;1.17;100.00;100395.78;2063703;28;29047;-74
2022/12/08 03:51:44;;;;;;;3.22;1.92;;;;;;;1.18;100.00;100389.66;2063773;28;32284;-74
2022/12/08 03:52:46;;;;;;;5.15;2.28;;;;;;;1.20;100.00;100390.53;2063315;28;38338;-74
2022/12/08 03:53:48;;;;;;;3.83;2.17;;;;;;;1.19;100.00;100384.41;2064361;28;31726;-74
2022/12/08 03:54:50;;;;;;;5.05;1.83;;;;;;;1.19;100.00;100383.53;2063835;28;31745;-72
2022/12/08 03:55:56;;;;;;;6.53;2.08;;;;;;;1.21;100.00;100384.41;2063782;28;35897;-74
2022/12/08 03:56:57;;;;;;;6.85;2.60;;;;;;;1.21;100.00;100379.13;2054769;28;33512;-73
2022/12/08 03:57:59;;;;;;;9.15;1.95;;;;;;;1.20;100.00;100375.59;2055278;28;36348;-74
2022/12/08 03:59:01;;;;;;;7.18;2.15;;;;;;;1.21;100.00;100379.13;2063578;28;33847;-74
2022/12/08 04:00:06;;;;;;;4.60;2.08;;;;;;;1.21;100.00;100373.84;2064140;28;32626;-73
2022/12/08 04:01:07;;;;;;;3.38;1.85;;;;;;;1.22;100.00;100378.25;2062581;28;38978;-74
2022/12/08 04:02:09;;;;;;;4.97;2.08;;;;;;;1.22;100.00;100378.25;2063304;28;36691;-74
2022/12/08 04:03:11;;;;;;;7.15;2.30;;;;;;;1.22;100.00;100379.16;2063599;28;30566;-74
2022/12/08 04:04:15;;;;;;;4.93;2.20;;;;;;;1.22;100.00;100375.59;2063528;28;37395;-74
2022/12/08 04:05:17;;;;;;;4.45;1.73;;;;;;;1.22;100.00;100375.59;2063552;28;30689;-74
2022/12/08 04:06:20;;;;;;;6.03;2.22;;;;;;;1.22;100.00;100379.16;2064467;28;20053;-74
2022/12/08 04:07:21;;;;;;;5.32;2.03;;;;;;;1.23;100.00;100374.75;2063055;28;38229;-74
2022/12/08 04:08:23;;;;;;;5.45;2.13;;;;;;;1.22;100.00;100373.88;2064393;28;27364;-74
2022/12/08 04:09:25;;;;;;;4.18;1.90;;;;;;;1.22;100.00;100368.59;2062586;28;36768;-74
2022/12/08 04:10:26;;;;;;;3.90;2.15;;;;;;;1.22;100.00;100362.41;2063698;28;26926;-74
2022/12/08 04:11:28;;;;;;;2.75;1.70;;;;;;;1.22;100.00;100365.97;2064502;28;20038;-74
2022/12/08 04:12:30;;;;;;;5.63;2.13;;;;;;;1.21;100.00;100365.94;2064127;28;32258;-74
2022/12/08 04:13:35;;;;;;;3.80;1.88;;;;;;;1.21;100.00;100368.59;2062948;28;39572;-74
2022/12/08 04:14:36;;;;;;;4.00;1.95;;;;;;;1.21;100.00;100361.56;2070091;28;25148;-74
2022/12/08 04:15:38;;;;;;;4.80;1.90;;;;;;;1.20;100.00;100365.03;2071202;28;38185;-74
2022/12/08 04:16:40;;;;;;;2.97;1.85;;;;;;;1.18;100.00;100350.97;2072741;28;20046;-74
2022/12/08 04:17:42;;;;;;;3.83;1.80;;;;;;;1.19;100.00;100367.69;2071564;28;33715;-74
2022/12/08 04:18:44;;;;;;;5.13;1.95;;;;;;;1.18;100.00;100368.56;2072259;28;30363;-74
2022/12/08 04:19:47;;;;;;;4.63;1.90;;;;;;;1.17;100.00;100369.41;2072175;28;20045;-74
2022/12/08 04:20:51;;;;;;;6.55;2.22;;;;;;;1.17;100.00;100374.69;2072784;28;20919;-73
2022/12/08 04:21:53;;;;;;;4.13;2.25;;;;;;;1.14;100.00;100368.53;2071071;28;35199;-74
2022/12/08 04:22:54;;;;;;;9.63;2.40;;;;;;;1.14;100.00;100365.03;2071842;28;37084;-74
2022/12/08 04:23:56;;;;;;;4.68;2.55;;;;;;;1.15;100.00;100372.06;2071510;28;33925;-74
2022/12/08 04:25:01;;;;;;;6.72;2.20;;;;;;;1.15;100.00;100366.81;2072569;28;20054;-74
2022/12/08 04:26:04;;;;;;;7.07;2.25;;;;;;;1.14;100.00;100365.03;2071531;28;32595;-74
2022/12/08 04:27:06;;;;;;;5.82;2.45;;;;;;;1.14;100.00;100362.38;2071951;28;35386;-73
2022/12/08 04:28:07;;;;;;;4.22;2.33;;;;;;;1.14;100.00;100365.91;2071040;28;36255;-73
2022/12/08 04:29:09;;;;;;;3.92;2.25;;;;;;;1.14;100.00;100360.63;2072078;28;33662;-74
2022/12/08 04:30:11;;;;;;;5.68;2.60;;;;;;;1.15;100.00;100361.53;2071814;28;23933;-73
2022/12/08 04:31:13;;;;;;;4.55;2.38;;;;;;;1.16;100.00;100363.28;2071412;28;29837;-74
2022/12/08 04:32:15;;;;;;;5.95;2.55;;;;;;;1.17;100.00;100361.50;2071578;28;29699;-73
2022/12/08 04:33:16;;;;;;;5.30;2.13;;;;;;;1.16;100.00;100368.53;2072844;28;20825;-73
2022/12/08 04:34:20;;;;;;;3.63;2.35;;;;;;;1.17;100.00;100361.50;2071235;28;36055;-73
2022/12/08 04:35:22;;;;;;;4.00;2.33;;;;;;;1.16;100.00;100363.28;2071714;28;37273;-73
2022/12/08 04:36:24;;;;;;;5.18;2.53;;;;;;;1.19;100.00;100357.16;2071855;28;30703;-73
2022/12/08 04:37:28;;;;;;;5.03;2.38;;;;;;;1.19;100.00;100357.16;2071800;28;38243;-73
2022/12/08 04:38:32;;;;;;;5.63;2.60;;;;;;;1.18;100.00;100352.75;2071853;28;30504;-73
2022/12/08 04:39:34;;;;;;;4.13;2.47;;;;;;;1.17;100.00;100354.50;2071960;28;30611;-73
2022/12/08 04:40:35;;;;;;;4.95;2.28;;;;;;;1.19;100.00;100352.75;2071351;28;32261;-73
2022/12/08 04:41:37;;;;;;;3.28;2.47;;;;;;;1.19;100.00;100350.13;2071692;28;30232;-73
2022/12/08 04:42:39;;;;;;;5.95;2.65;;;;;;;1.19;100.00;100346.59;2071989;28;20834;-73
2022/12/08 04:43:43;;;;;;;3.58;2.20;;;;;;;1.19;100.00;100352.75;2071407;28;39587;-73
2022/12/08 04:44:47;;;;;;;4.22;2.35;;;;;;;1.21;100.00;100356.28;2071705;28;20057;-74
2022/12/08 04:45:48;;;;;;;5.07;2.42;;;;;;;1.21;100.00;100352.78;2072292;28;33590;-74
2022/12/08 04:46:50;;;;;;;3.75;2.50;;;;;;;1.20;100.00;100351.84;2071251;28;36900;-74
2022/12/08 04:47:52;;;;;;;4.32;2.22;;;;;;;1.21;100.00;100353.63;2070912;28;41430;-74
2022/12/08 04:48:54;;;;;;;5.90;2.60;;;;;;;1.21;100.00;100345.72;2070961;28;37225;-74
2022/12/08 04:49:55;;;;;;;3.45;2.60;;;;;;;1.21;100.00;100336.94;2071825;28;33922;-74
2022/12/08 04:50:59;;;;;;;4.97;2.92;;;;;;;1.23;100.00;100345.75;2071240;28;39481;-74
2022/12/08 04:52:01;;;;;;;5.55;2.92;;;;;;;1.21;100.00;100337.81;2062763;28;38198;-74
2022/12/08 04:53:03;;;;;;;7.40;3.17;;;;;;;1.22;100.00;100338.69;2063278;28;20812;-74
2022/12/08 04:54:05;;;;;;;5.22;2.95;;;;;;;1.22;100.00;100331.69;2071773;28;38423;-74
2022/12/08 04:55:07;;;;;;;5.28;2.72;;;;;;;1.21;100.00;100326.41;2072399;28;20035;-74
2022/12/08 04:56:17;;;;;;;5.68;2.72;;;;;;;1.22;100.00;100330.78;2071434;28;37560;-74
2022/12/08 04:57:19;;;;;;;4.65;2.45;;;;;;;1.22;100.00;100326.41;2071885;28;28944;-74
2022/12/08 04:58:23;;;;;;;7.18;2.42;;;;;;;1.22;100.00;100325.50;2071528;28;35459;-74
2022/12/08 04:59:25;;;;;;;5.28;2.70;;;;;;;1.22;100.00;100321.13;2071436;28;33149;-73
2022/12/08 05:00:28;;;;;;;5.97;2.85;;;;;;;1.22;100.00;100320.22;2071588;28;36322;-74
2022/12/08 05:01:30;;;;;;;4.93;2.58;;;;;;;1.23;100.00;100311.47;2062268;28;39800;-74
2022/12/08 05:02:32;;;;;;;4.63;2.75;;;;;;;1.21;100.00;100308.81;2063654;28;27576;-74
2022/12/08 05:03:36;;;;;;;4.00;2.90;;;;;;;1.22;100.00;100301.78;2071301;28;35985;-74
2022/12/08 05:04:38;;;;;;;3.70;2.92;;;;;;;1.21;100.00;100300.91;2071191;28;36847;-74
2022/12/08 05:05:42;;;;;;;4.45;3.17;;;;;;;1.21;100.00;100300.91;2071353;28;35443;-74
2022/12/08 05:06:44;;;;;;;6.30;3.30;;;;;;;1.21;100.00;100313.22;2062767;28;40923;-74
2022/12/08 05:07:48;;;;;;;7.13;3.53;;;;;;;1.21;100.00;100313.22;2062797;28;23153;-74
2022/12/08 05:08:49;;;;;;;3.78;3.30;;;;;;;1.20;100.00;100303.53;2071726;28;32682;-74
2022/12/08 05:09:51;;;;;;;5.60;3.60;;;;;;;1.19;100.00;100315.84;2071500;28;28665;-74
2022/12/08 05:10:53;;;;;;;4.18;3.20;;;;;;;1.21;100.00;100313.22;2071735;28;31625;-73
2022/12/08 05:11:55;;;;;;;6.97;4.00;;;;;;;1.19;100.00;100312.34;2071127;28;38826;-75
2022/12/08 05:12:58;;;;;;;6.32;3.60;;;;;;;1.19;100.00;100314.97;2072162;28;20039;-74
2022/12/08 05:14:00;;;;;;;7.85;4.30;;;;;;;1.19;100.00;100314.97;2062651;28;28272;-74